createdAt,value
2023-05-23T00:02:08.904Z,14.77
2023-05-23T00:04:58.804Z,14.66
2023-05-23T00:07:46.449Z,14.51
2023-05-23T00:10:34.174Z,14.72
2023-05-23T00:13:21.917Z,14.84
2023-05-23T00:16:10.703Z,14.78
2023-05-23T00:18:59.641Z,14.70
2023-05-23T00:21:49.024Z,14.68
2023-05-23T00:24:36.777Z,14.64
2023-05-23T00:27:24.548Z,14.47
2023-05-23T00:30:12.545Z,14.35
2023-05-23T00:33:00.762Z,14.41
2023-05-23T00:35:49.441Z,14.17
2023-05-23T00:38:37.433Z,14.14
2023-05-23T00:41:27.187Z,14.08
2023-05-23T00:44:14.988Z,14.05
2023-05-23T00:47:03.141Z,14.13
2023-05-23T00:49:50.994Z,13.92
2023-05-23T00:52:39.709Z,14.12
2023-05-23T00:55:28.811Z,13.88
2023-05-23T00:58:17.986Z,13.99
2023-05-23T01:01:06.178Z,13.79
2023-05-23T01:03:54.018Z,13.83
2023-05-23T01:06:41.903Z,13.72
2023-05-23T01:12:51.399Z,13.76
2023-05-23T01:16:13.384Z,13.83
2023-05-23T01:19:06.755Z,13.74
2023-05-23T01:21:56.175Z,13.64
2023-05-23T01:25:06.682Z,13.67
2023-05-23T01:28:06.510Z,13.69
2023-05-23T01:30:58.683Z,13.71
2023-05-23T01:33:47.582Z,13.69
2023-05-23T01:36:38.073Z,13.54
2023-05-23T01:39:25.812Z,13.50
2023-05-23T01:42:14.064Z,13.61
2023-05-23T01:45:01.977Z,13.67
2023-05-23T01:47:52.988Z,13.58
2023-05-23T01:50:42.234Z,13.45
2023-05-23T01:53:32.853Z,13.60
2023-05-23T01:56:24.897Z,13.63
2023-05-23T01:59:12.880Z,13.44
2023-05-23T02:02:00.954Z,13.43
2023-05-23T02:04:50.164Z,13.28
2023-05-23T02:07:39.212Z,13.53
2023-05-23T02:10:27.171Z,13.60
2023-05-23T02:13:14.955Z,13.66
2023-05-23T02:16:02.839Z,13.48
2023-05-23T02:18:53.106Z,13.73
2023-05-23T02:21:41.386Z,13.68
2023-05-23T02:24:29.078Z,13.85
2023-05-23T02:27:16.818Z,13.66
2023-05-23T02:30:04.939Z,13.65
2023-05-23T02:32:53.485Z,13.82
2023-05-23T02:35:41.564Z,13.38
2023-05-23T02:38:31.241Z,13.72
2023-05-23T02:41:19.099Z,13.35
2023-05-23T02:44:06.992Z,13.84
2023-05-23T02:46:54.868Z,13.76
2023-05-23T02:49:42.694Z,13.68
2023-05-23T02:52:30.477Z,13.82
2023-05-23T02:55:18.354Z,13.86
2023-05-23T02:58:09.323Z,13.80
2023-05-23T03:00:57.432Z,13.83
2023-05-23T03:03:45.387Z,13.85
2023-05-23T03:06:34.415Z,13.88
2023-05-23T03:09:22.120Z,13.83
2023-05-23T03:12:12.668Z,13.95
2023-05-23T03:15:00.653Z,14.01
2023-05-23T03:17:48.738Z,14.03
2023-05-23T03:20:41.260Z,14.19
2023-05-23T03:23:29.050Z,13.93
2023-05-23T03:26:16.963Z,13.96
2023-05-23T03:29:04.840Z,14.05
2023-05-23T03:31:52.497Z,14.14
2023-05-23T03:34:40.163Z,14.21
2023-05-23T03:37:27.928Z,14.24
2023-05-23T03:40:15.844Z,14.22
2023-05-23T03:43:05.865Z,14.35
2023-05-23T03:45:55.719Z,14.51
2023-05-23T03:48:43.657Z,14.43
2023-05-23T03:51:31.963Z,14.49
2023-05-23T03:54:20.754Z,14.39
2023-05-23T03:57:08.630Z,14.61
2023-05-23T03:59:58.595Z,14.59
2023-05-23T04:02:48.680Z,14.74
2023-05-23T04:05:39.701Z,14.60
2023-05-23T04:08:29.717Z,14.83
2023-05-23T04:11:18.350Z,14.79
2023-05-23T04:14:06.810Z,14.90
2023-05-23T04:16:54.623Z,14.87
2023-05-23T04:19:46.799Z,14.97
2023-05-23T04:22:34.740Z,14.96
2023-05-23T04:25:24.653Z,15.17
2023-05-23T04:28:24.404Z,15.21
2023-05-23T04:31:15.791Z,15.18
2023-05-23T04:34:04.203Z,15.11
2023-05-23T04:36:57.758Z,15.43
2023-05-23T04:39:46.730Z,15.58
2023-05-23T04:43:14.647Z,15.63
2023-05-23T04:46:10.497Z,15.53
2023-05-23T04:49:02.940Z,15.82
2023-05-23T04:51:51.368Z,15.96
2023-05-23T04:54:45.197Z,15.98
2023-05-23T04:57:33.405Z,16.18
2023-05-23T05:00:22.798Z,16.11
2023-05-23T05:03:12.281Z,16.31
2023-05-23T05:06:06.554Z,16.29
2023-05-23T05:08:56.376Z,16.58
2023-05-23T05:11:46.928Z,16.51
2023-05-23T05:14:38.399Z,16.92
2023-05-23T05:17:26.440Z,17.24
2023-05-23T05:20:29.755Z,17.30
2023-05-23T05:23:17.652Z,17.57
2023-05-23T05:26:05.694Z,17.55
2023-05-23T05:28:53.720Z,17.80
2023-05-23T05:31:43.765Z,18.12
2023-05-23T05:34:38.280Z,18.33
2023-05-23T05:37:27.518Z,18.35
2023-05-23T05:40:19.925Z,18.65
2023-05-23T05:43:07.589Z,18.86
2023-05-23T05:45:55.824Z,18.68
2023-05-23T05:48:46.239Z,18.89
2023-05-23T05:51:36.849Z,18.97
2023-05-23T05:54:33.964Z,19.24
2023-05-23T05:57:21.925Z,19.22
2023-05-23T06:00:13.973Z,19.55
2023-05-23T06:03:09.220Z,19.77
2023-05-23T06:06:13.364Z,20.13
2023-05-23T06:09:01.853Z,19.99
2023-05-23T06:11:53.467Z,20.19
2023-05-23T06:14:41.817Z,20.33
2023-05-23T06:17:30.038Z,20.59
2023-05-23T06:20:20.963Z,20.55
2023-05-23T06:23:12.100Z,20.73
2023-05-23T06:26:04.306Z,20.94
2023-05-23T06:28:52.077Z,21.31
2023-05-23T06:31:58.296Z,21.47
2023-05-23T06:34:46.150Z,21.56
2023-05-23T06:37:34.735Z,21.49
2023-05-23T06:40:25.512Z,21.54
2023-05-23T06:43:20.780Z,21.57
2023-05-23T06:46:28.728Z,21.99
2023-05-23T06:49:19.529Z,22.28
2023-05-23T06:52:07.956Z,22.52
2023-05-23T06:54:55.945Z,22.07
2023-05-23T06:57:45.333Z,22.51
2023-05-23T07:00:36.912Z,22.63
2023-05-23T07:03:47.993Z,22.48
2023-05-23T07:06:43.431Z,23.06
2023-05-23T07:09:31.666Z,23.12
2023-05-23T07:12:34.778Z,23.06
2023-05-23T07:15:23.299Z,23.04
2023-05-23T07:18:21.111Z,23.12
2023-05-23T07:21:09.188Z,23.44
2023-05-23T07:24:00.646Z,23.38
2023-05-23T07:26:58.410Z,23.92
2023-05-23T07:29:47.380Z,24.03
2023-05-23T07:32:41.579Z,24.15
2023-05-23T07:35:33.813Z,24.10
2023-05-23T07:38:24.017Z,23.75
2023-05-23T07:41:22.655Z,23.70
2023-05-23T07:44:10.481Z,23.96
2023-05-23T07:47:07.976Z,23.85
2023-05-23T07:49:58.765Z,24.31
2023-05-23T07:52:48.437Z,24.46
2023-05-23T07:55:39.354Z,24.48
2023-05-23T07:58:27.782Z,24.67
2023-05-23T08:01:18.805Z,24.74
2023-05-23T08:04:21.879Z,25.49
2023-05-23T08:10:28.669Z,25.47
2023-05-23T08:14:06.169Z,25.34
2023-05-23T08:17:15.432Z,25.48
2023-05-23T08:20:24.753Z,25.67
2023-05-23T08:23:13.059Z,25.11
2023-05-23T08:26:09.209Z,25.44
2023-05-23T08:29:01.847Z,25.05
2023-05-23T08:31:56.683Z,25.74
2023-05-23T08:34:45.482Z,26.23
2023-05-23T08:37:38.324Z,26.11
2023-05-23T08:40:31.582Z,26.29
2023-05-23T08:43:45.273Z,26.31
2023-05-23T08:46:50.264Z,26.44
2023-05-23T08:50:13.332Z,26.60
2023-05-23T08:53:22.929Z,26.52
2023-05-23T08:56:37.737Z,26.92
2023-05-23T08:59:27.348Z,27.22
2023-05-23T09:02:16.679Z,26.56
2023-05-23T09:05:07.767Z,27.15
2023-05-23T09:07:57.042Z,27.69
2023-05-23T09:10:48.353Z,27.46
2023-05-23T09:13:36.107Z,28.26
2023-05-23T09:16:35.253Z,28.25
2023-05-23T09:19:28.505Z,27.60
2023-05-23T09:22:43.427Z,27.84
2023-05-23T09:25:49.028Z,27.81
2023-05-23T09:28:39.512Z,27.62
2023-05-23T09:31:29.360Z,27.96
2023-05-23T09:34:18.033Z,28.24
2023-05-23T09:37:06.335Z,28.55
2023-05-23T09:39:56.475Z,28.83
2023-05-23T09:42:46.318Z,28.30
2023-05-23T09:45:34.564Z,28.43
2023-05-23T09:48:30.367Z,28.89
2023-05-23T09:51:24.065Z,28.98
2023-05-23T09:54:15.240Z,29.14
2023-05-23T09:57:11.838Z,28.90
2023-05-23T10:00:01.497Z,28.89
2023-05-23T10:02:58.245Z,28.83
2023-05-23T10:05:57.410Z,28.20
2023-05-23T10:08:50.963Z,27.26
2023-05-23T10:12:17.250Z,26.78
2023-05-23T10:15:07.182Z,26.61
2023-05-23T10:18:20.441Z,26.39
2023-05-23T10:21:13.034Z,26.16
2023-05-23T10:24:01.601Z,25.78
2023-05-23T10:26:49.658Z,25.87
2023-05-23T10:29:38.448Z,26.06
2023-05-23T10:32:30.364Z,26.30
2023-05-23T10:35:47.291Z,26.19
2023-05-23T10:38:58.965Z,25.64
2023-05-23T10:41:56.137Z,25.78
2023-05-23T10:44:44.009Z,26.68
2023-05-23T10:47:31.730Z,26.74
2023-05-23T10:50:34.197Z,26.26
2023-05-23T10:53:23.698Z,26.20
2023-05-23T10:56:23.912Z,26.98
2023-05-23T10:59:21.686Z,27.93
2023-05-23T11:02:17.376Z,27.87
2023-05-23T11:05:25.201Z,28.69
2023-05-23T11:08:14.721Z,29.13
2023-05-23T11:11:03.894Z,28.24
2023-05-23T11:14:00.673Z,28.07
2023-05-23T11:16:49.398Z,28.07
2023-05-23T11:19:37.540Z,28.27
2023-05-23T11:22:30.559Z,29.01
2023-05-23T11:25:20.557Z,28.54
2023-05-23T11:28:08.524Z,28.64
2023-05-23T11:30:58.109Z,28.04
2023-05-23T11:33:46.249Z,27.88
2023-05-23T11:36:35.283Z,28.60
2023-05-23T11:39:23.785Z,27.66
2023-05-23T11:42:11.830Z,26.95
2023-05-23T11:44:59.746Z,27.34
2023-05-23T11:47:47.611Z,26.93
2023-05-23T11:50:47.665Z,27.06
2023-05-23T11:53:44.571Z,26.55
2023-05-23T11:56:32.550Z,26.14
2023-05-23T11:59:21.670Z,26.59
2023-05-23T12:02:09.395Z,27.33
2023-05-23T12:04:57.322Z,27.36
2023-05-23T12:07:47.708Z,27.78
2023-05-23T12:10:51.738Z,28.49
2023-05-23T12:13:42.503Z,28.45
2023-05-23T12:16:30.260Z,28.77
2023-05-23T12:19:18.449Z,28.53
2023-05-23T12:22:13.265Z,28.60
2023-05-23T12:25:01.176Z,28.23
2023-05-23T12:27:49.396Z,27.69
2023-05-23T12:30:44.518Z,27.54
2023-05-23T12:33:32.314Z,27.79
2023-05-23T12:36:25.407Z,27.07
2023-05-23T12:39:13.609Z,26.70
2023-05-23T12:42:09.783Z,26.86
2023-05-23T12:44:58.533Z,27.43
2023-05-23T12:47:46.281Z,28.05
2023-05-23T12:50:34.074Z,28.21
2023-05-23T12:53:24.983Z,28.17
2023-05-23T12:56:13.201Z,28.74
2023-05-23T12:59:02.243Z,28.48
2023-05-23T13:01:50.128Z,28.43
2023-05-23T13:04:40.280Z,28.21
2023-05-23T13:07:28.244Z,27.70
2023-05-23T13:10:15.914Z,27.84
2023-05-23T13:13:04.488Z,28.44
2023-05-23T13:15:52.389Z,28.48
2023-05-23T13:18:40.344Z,28.83
2023-05-23T13:21:28.469Z,28.98
2023-05-23T13:24:16.313Z,28.86
2023-05-23T13:27:05.731Z,29.07
2023-05-23T13:29:53.534Z,28.45
2023-05-23T13:32:41.279Z,27.95
2023-05-23T13:35:32.056Z,27.74
2023-05-23T13:38:20.875Z,27.79
2023-05-23T13:41:08.679Z,27.67
2023-05-23T13:43:56.821Z,27.25
2023-05-23T13:46:44.919Z,27.16
2023-05-23T13:49:32.746Z,27.53
2023-05-23T13:52:20.547Z,27.86
2023-05-23T13:55:08.564Z,28.11
2023-05-23T13:57:56.332Z,28.14
2023-05-23T14:00:46.477Z,27.95
2023-05-23T14:03:34.266Z,27.91
2023-05-23T14:06:22.205Z,28.01
2023-05-23T14:09:10.085Z,28.11
2023-05-23T14:11:58.625Z,28.41
2023-05-23T14:14:46.418Z,28.67
2023-05-23T14:17:34.098Z,28.70
2023-05-23T14:20:22.994Z,28.58
2023-05-23T14:23:11.073Z,28.28
2023-05-23T14:25:58.963Z,27.37
2023-05-23T14:28:46.816Z,27.40
2023-05-23T14:31:34.547Z,27.15
2023-05-23T14:34:22.258Z,27.35
2023-05-23T14:37:10.210Z,27.71
2023-05-23T14:39:58.133Z,27.99
2023-05-23T14:42:46.177Z,28.12
2023-05-23T14:45:34.227Z,27.89
2023-05-23T14:48:22.592Z,28.11
2023-05-23T14:51:11.296Z,27.96
2023-05-23T14:54:00.878Z,28.00
2023-05-23T14:56:51.138Z,28.01
2023-05-23T14:59:40.697Z,27.68
2023-05-23T15:02:28.448Z,27.97
2023-05-23T15:05:17.553Z,27.90
2023-05-23T15:08:05.550Z,27.71
2023-05-23T15:10:53.469Z,27.76
2023-05-23T15:13:41.308Z,27.18
2023-05-23T15:16:33.186Z,27.28
2023-05-23T15:19:21.169Z,27.20
2023-05-23T15:22:13.358Z,27.40
2023-05-23T15:25:08.037Z,27.55
2023-05-23T15:27:56.628Z,27.42
2023-05-23T15:30:44.522Z,27.32
2023-05-23T15:33:32.684Z,27.52
2023-05-23T15:36:20.430Z,27.52
2023-05-23T15:39:08.259Z,27.42
2023-05-23T15:41:55.932Z,26.95
2023-05-23T15:44:43.893Z,26.90
2023-05-23T15:47:31.714Z,26.66
2023-05-23T15:50:20.407Z,26.48
2023-05-23T15:53:08.062Z,26.24
2023-05-23T15:55:55.824Z,26.44
2023-05-23T15:58:43.856Z,26.51
2023-05-23T16:01:36.890Z,26.43
2023-05-23T16:04:24.684Z,26.48
2023-05-23T16:07:12.586Z,26.38
2023-05-23T16:10:00.430Z,26.28
2023-05-23T16:12:48.551Z,26.21
2023-05-23T16:15:36.294Z,26.20
2023-05-23T16:18:24.404Z,25.70
2023-05-23T16:21:12.269Z,25.78
2023-05-23T16:24:00.103Z,26.02
2023-05-23T16:26:47.890Z,25.96
2023-05-23T16:29:35.776Z,25.78
2023-05-23T16:32:23.512Z,25.85
2023-05-23T16:35:14.046Z,25.67
2023-05-23T16:38:04.520Z,25.29
2023-05-23T16:40:52.366Z,25.10
2023-05-23T16:43:40.129Z,24.86
2023-05-23T16:46:27.865Z,24.60
2023-05-23T16:49:15.553Z,24.66
2023-05-23T16:52:03.682Z,24.34
2023-05-23T16:54:51.460Z,24.24
2023-05-23T16:57:39.293Z,24.14
2023-05-23T17:00:27.208Z,24.17
2023-05-23T17:03:15.098Z,24.04
2023-05-23T17:06:02.817Z,24.08
2023-05-23T17:08:52.836Z,23.60
2023-05-23T17:11:40.451Z,23.83
2023-05-23T17:14:28.248Z,23.65
2023-05-23T17:17:16.285Z,23.50
2023-05-23T17:20:04.261Z,22.96
2023-05-23T17:22:55.218Z,23.28
2023-05-23T17:25:43.367Z,23.12
2023-05-23T17:28:31.367Z,22.94
2023-05-23T17:31:21.804Z,22.92
2023-05-23T17:34:12.252Z,22.84
2023-05-23T17:37:00.149Z,22.56
2023-05-23T17:39:48.804Z,22.45
2023-05-23T17:42:37.322Z,22.30
2023-05-23T17:45:25.103Z,22.03
2023-05-23T17:48:12.898Z,22.09
2023-05-23T17:51:00.761Z,22.09
2023-05-23T17:53:51.876Z,21.62
2023-05-23T17:56:39.593Z,21.76
2023-05-23T17:59:28.310Z,21.57
2023-05-23T18:02:16.088Z,21.43
2023-05-23T18:05:05.098Z,21.18
2023-05-23T18:07:53.640Z,21.22
2023-05-23T18:10:50.274Z,21.41
2023-05-23T18:13:38.405Z,21.27
2023-05-23T18:16:26.096Z,21.04
2023-05-23T18:19:14.002Z,20.91
2023-05-23T18:22:01.892Z,20.89
2023-05-23T18:24:49.594Z,20.76
2023-05-23T18:27:37.965Z,20.53
2023-05-23T18:30:26.744Z,20.61
2023-05-23T18:33:14.607Z,20.36
2023-05-23T18:36:02.437Z,20.28
2023-05-23T18:38:50.211Z,20.19
2023-05-23T18:41:38.080Z,19.90
2023-05-23T18:44:26.101Z,20.06
2023-05-23T18:47:13.849Z,19.71
2023-05-23T18:50:01.680Z,19.78
2023-05-23T18:52:49.380Z,19.73
2023-05-23T18:55:37.783Z,19.71
2023-05-23T18:58:25.895Z,19.66
2023-05-23T19:01:13.728Z,19.47
2023-05-23T19:04:01.957Z,19.40
2023-05-23T19:06:51.672Z,19.31
2023-05-23T19:09:39.510Z,19.42
2023-05-23T19:12:27.192Z,19.31
2023-05-23T19:15:15.297Z,19.21
2023-05-23T19:18:03.128Z,18.93
2023-05-23T19:20:54.830Z,18.96
2023-05-23T19:23:45.244Z,18.91
2023-05-23T19:26:33.162Z,19.01
2023-05-23T19:29:21.789Z,18.70
2023-05-23T19:32:09.527Z,18.80
2023-05-23T19:34:57.212Z,18.62
2023-05-23T19:37:45.372Z,18.91
2023-05-23T19:40:33.179Z,18.75
2023-05-23T19:43:21.282Z,18.77
2023-05-23T19:46:09.196Z,18.68
2023-05-23T19:48:59.909Z,18.57
2023-05-23T19:51:48.156Z,18.33
2023-05-23T19:54:35.831Z,18.29
2023-05-23T19:57:23.907Z,18.01
2023-05-23T20:00:14.931Z,17.91
2023-05-23T20:03:03.823Z,18.06
2023-05-23T20:05:51.737Z,18.10
2023-05-23T20:08:39.704Z,18.05
2023-05-23T20:11:29.306Z,17.95
2023-05-23T20:14:17.337Z,17.62
2023-05-23T20:17:05.410Z,17.83
2023-05-23T20:19:53.135Z,17.79
2023-05-23T20:22:41.132Z,17.56
2023-05-23T20:25:28.992Z,17.60
2023-05-23T20:28:16.900Z,17.69
2023-05-23T20:31:04.684Z,17.71
2023-05-23T20:33:52.737Z,17.60
2023-05-23T20:36:40.466Z,17.63
2023-05-23T20:39:28.189Z,17.58
2023-05-23T20:42:16.023Z,17.52
2023-05-23T20:45:07.245Z,17.43
2023-05-23T20:47:55.722Z,17.24
2023-05-23T20:50:44.340Z,17.35
2023-05-23T20:53:32.643Z,16.77
2023-05-23T20:56:20.409Z,16.84
2023-05-23T20:59:08.509Z,17.12
2023-05-23T21:01:57.415Z,16.94
2023-05-23T21:04:45.223Z,16.99
2023-05-23T21:07:32.985Z,16.92
2023-05-23T21:10:20.959Z,16.80
2023-05-23T21:13:08.671Z,16.75
2023-05-23T21:15:56.445Z,16.39
2023-05-23T21:18:44.174Z,16.65
2023-05-23T21:21:32.016Z,16.62
2023-05-23T21:24:19.829Z,16.49
2023-05-23T21:27:08.201Z,16.44
2023-05-23T21:29:56.545Z,16.27
2023-05-23T21:32:45.046Z,16.17
2023-05-23T21:35:39.150Z,16.33
2023-05-23T21:38:27.911Z,16.28
2023-05-23T21:41:15.569Z,16.33
2023-05-23T21:44:03.430Z,16.28
2023-05-23T21:46:51.334Z,16.23
2023-05-23T21:49:40.653Z,16.02
2023-05-23T21:52:28.423Z,16.09
2023-05-23T21:55:16.332Z,16.29
2023-05-23T21:58:04.029Z,16.20
2023-05-23T22:00:51.720Z,15.87
2023-05-23T22:03:39.546Z,15.85
2023-05-23T22:06:27.541Z,15.95
2023-05-23T22:09:15.560Z,15.94
2023-05-23T22:12:03.423Z,16.07
2023-05-23T22:14:51.116Z,15.61
2023-05-23T22:17:43.520Z,16.09
2023-05-23T22:20:34.312Z,16.18
2023-05-23T22:23:22.085Z,15.95
2023-05-23T22:26:09.976Z,16.10
2023-05-23T22:28:57.849Z,16.31
2023-05-23T22:31:47.062Z,16.13
2023-05-23T22:34:34.810Z,16.37
2023-05-23T22:37:22.524Z,16.21
2023-05-23T22:40:10.630Z,16.54
2023-05-23T22:42:58.428Z,16.61
2023-05-23T22:45:46.342Z,16.35
2023-05-23T22:48:34.373Z,16.58
2023-05-23T22:51:22.509Z,16.54
2023-05-23T22:54:10.192Z,16.49
2023-05-23T22:56:57.900Z,16.08
2023-05-23T22:59:45.593Z,16.47
2023-05-23T23:02:34.790Z,16.24
2023-05-23T23:05:23.203Z,16.52
2023-05-23T23:08:11.125Z,16.45
2023-05-23T23:10:58.812Z,16.39
2023-05-23T23:13:46.787Z,16.29
2023-05-23T23:16:34.915Z,16.07
2023-05-23T23:19:22.953Z,16.20
2023-05-23T23:22:11.085Z,16.07
2023-05-23T23:24:59.130Z,16.10
2023-05-23T23:27:46.938Z,16.07
2023-05-23T23:30:34.776Z,15.96
2023-05-23T23:33:21.895Z,15.82
2023-05-23T23:36:09.791Z,15.71
2023-05-23T23:38:57.420Z,15.72
2023-05-23T23:41:45.270Z,15.70
2023-05-23T23:44:33.102Z,15.79
2023-05-23T23:47:20.890Z,15.55
2023-05-23T23:50:09.020Z,15.66
2023-05-23T23:52:59.609Z,15.48
2023-05-23T23:55:48.805Z,15.33
2023-05-23T23:58:36.749Z,15.44
